Time;durP1;ratioP1;P1;durP2;ratioP2;P2;SDS_P1;SDS_P2;PMS_P1;PMS_P2;Temp;Humidity;BMP_temperature;BMP_pressure;BME280_temperature;BME280_humidity;BME280_pressure;Samples;Min_cycle;Max_cycle;Signal;HPM_P1;HPM_P2
2023/01/03 05:30:40;;;;;;;;;3.50;3.50;;;;;9.47;78.36;102389.19;5038289;28;45582;-75
2023/01/03 05:33:06;;;;;;;;;6.00;6.00;;;;;9.30;78.64;102377.84;5036193;28;46294;-75
2023/01/03 05:35:31;;;;;;;;;6.25;6.25;;;;;9.28;79.06;102384.09;5036693;28;45320;-74
2023/01/03 05:37:57;;;;;;;;;4.00;4.00;;;;;9.26;79.92;102391.31;5036755;28;45546;-75
2023/01/03 05:40:22;;;;;;;;;8.00;3.75;;;;;9.18;78.84;102374.47;5036864;28;45360;-76
2023/01/03 05:42:47;;;;;;;;;6.00;6.00;;;;;9.14;79.66;102375.41;5036123;28;45481;-74
2023/01/03 05:45:13;;;;;;;;;3.00;3.00;;;;;9.13;79.38;102363.81;5018289;28;45416;-74
2023/01/03 05:47:38;;;;;;;;;6.75;5.00;;;;;9.23;79.27;102373.50;5036165;28;45788;-75
2023/01/03 05:50:04;;;;;;;;;6.25;6.25;;;;;9.34;79.02;102390.28;5036464;28;45202;-75
2023/01/03 05:52:29;;;;;;;;;5.25;4.50;;;;;9.34;78.61;102374.22;5036285;28;45554;-76
2023/01/03 05:54:55;;;;;;;;;5.75;5.25;;;;;9.51;78.66;102387.34;5018448;28;45391;-76
2023/01/03 05:57:20;;;;;;;;;5.75;5.75;;;;;9.55;78.11;102385.50;5036330;28;45351;-76
2023/01/03 05:59:45;;;;;;;;;5.00;5.00;;;;;9.26;77.59;102351.16;5035683;28;45369;-75
2023/01/03 06:02:11;;;;;;;;;5.25;5.25;;;;;9.44;77.50;102375.84;5036044;28;46157;-75
2023/01/03 06:04:36;;;;;;;;;9.00;5.00;;;;;9.30;77.78;102359.09;5018757;28;45340;-75
2023/01/03 06:07:01;;;;;;;;;4.00;4.00;;;;;9.53;77.76;102381.97;5036263;28;45469;-75
2023/01/03 06:09:27;;;;;;;;;4.50;4.00;;;;;9.46;77.65;102389.19;5036287;28;45364;-76
2023/01/03 06:11:52;;;;;;;;;6.00;6.00;;;;;9.42;77.72;102385.69;5032556;28;48193;-74
2023/01/03 06:14:18;;;;;;;;;4.00;4.00;;;;;9.36;77.84;102377.75;5016697;28;45317;-73
2023/01/03 06:19:28;;;;;;;;;4.75;4.75;;;;;9.44;77.86;102393.72;5022608;28;45352;-75
2023/01/03 06:21:53;;;;;;;;;7.00;4.00;;;;;9.48;77.35;102398.09;5029070;28;45452;-74
2023/01/03 06:24:19;;;;;;;;;4.00;4.00;;;;;9.46;77.46;102397.22;5034389;28;45363;-77
2023/01/03 06:26:44;;;;;;;;;6.50;5.25;;;;;9.42;77.41;102398.19;5026819;28;45309;-75
2023/01/03 06:29:10;;;;;;;;;3.25;3.25;;;;;9.25;77.66;102381.50;5026825;28;45452;-73
2023/01/03 06:31:36;;;;;;;;;4.00;4.00;;;;;9.31;77.41;102406.38;5038372;28;46789;-78
2023/01/03 06:34:02;;;;;;;;;5.00;5.00;;;;;9.35;77.81;102415.25;5041669;28;45304;-77
2023/01/03 06:36:28;;;;;;;;;7.25;7.25;;;;;9.21;77.56;102393.13;5035855;28;45390;-76
2023/01/03 06:38:53;;;;;;;;;6.00;5.00;;;;;9.35;77.88;102416.16;5035974;28;45244;-75
2023/01/03 06:41:20;;;;;;;;;4.25;4.25;;;;;9.31;78.15;102427.78;5017628;28;47313;-75
2023/01/03 06:43:45;;;;;;;;;4.50;4.00;;;;;9.27;77.74;102414.47;5006570;28;45442;-77
2023/01/03 06:54:30;;;;;;;;;7.00;5.00;;;;;9.27;78.11;102419.84;5012201;28;45356;-75
2023/01/03 06:56:56;;;;;;;;;3.75;3.50;;;;;9.23;77.55;102418.97;5029876;28;45376;-75
2023/01/03 06:59:22;;;;;;;;;5.75;4.00;;;;;9.28;78.18;102432.28;5035712;28;45252;-76
2023/01/03 07:01:49;;;;;;;;;5.25;5.25;;;;;9.26;77.99;102426.97;5020308;28;45455;-78
2023/01/03 07:04:16;;;;;;;;;6.00;6.00;;;;;9.35;77.83;102431.31;5015554;28;45378;-78
2023/01/03 07:06:41;;;;;;;;;6.50;5.25;;;;;9.34;77.91;102430.44;5030003;28;45334;-76
2023/01/03 07:09:08;;;;;;;;;7.25;6.00;;;;;9.33;77.96;102433.13;5035669;28;45627;-77
2023/01/03 07:11:35;;;;;;;;;8.00;6.75;;;;;9.40;77.51;102438.38;5035028;28;45426;-80
2023/01/03 07:14:02;;;;;;;;;10.75;5.50;;;;;9.28;77.57;102419.78;5017901;28;45206;-83
2023/01/03 07:16:31;;;;;;;;;7.00;7.00;;;;;9.30;78.09;102443.84;5035003;28;45296;-73
2023/01/03 07:18:58;;;;;;;;;6.00;4.00;;;;;9.27;77.99;102431.41;5024943;28;45963;-76
2023/01/03 07:21:25;;;;;;;;;6.25;6.25;;;;;9.27;77.95;102436.75;5030796;28;45971;-77
2023/01/03 07:24:00;;;;;;;;;8.00;5.75;;;;;9.35;77.80;102450.06;5034796;28;45435;-78
2023/01/03 07:26:26;;;;;;;;;11.25;7.00;;;;;9.31;78.23;102445.63;5034989;28;45278;-76
2023/01/03 07:28:51;;;;;;;;;5.00;5.00;;;;;9.18;78.48;102431.56;5035330;28;45416;-77
2023/01/03 07:31:17;;;;;;;;;7.00;7.00;;;;;9.25;78.92;102451.06;5034364;28;45466;-76
2023/01/03 07:33:44;;;;;;;;;6.75;6.75;;;;;9.28;78.71;102457.25;5035093;28;45287;-77
2023/01/03 07:36:11;;;;;;;;;8.75;7.00;;;;;9.24;78.38;102460.00;5034938;28;45333;-76
2023/01/03 07:38:37;;;;;;;;;5.75;5.25;;;;;9.26;78.73;102461.78;5035269;28;45320;-77
2023/01/03 07:41:04;;;;;;;;;7.00;6.00;;;;;9.30;78.66;102459.91;5034709;28;45369;-76
2023/01/03 07:43:36;;;;;;;;;6.50;4.50;;;;;9.18;78.59;102442.25;5023112;28;45545;-76
2023/01/03 07:46:23;;;;;;;;;8.25;5.25;;;;;9.34;78.35;102459.00;5033679;28;45367;-76
2023/01/03 07:48:51;;;;;;;;;4.25;4.25;;;;;9.33;78.20;102450.06;5035113;28;45304;-75
2023/01/03 07:51:19;;;;;;;;;9.00;7.50;;;;;9.35;78.50;102468.78;5035116;28;45345;-77
2023/01/03 07:53:48;;;;;;;;;6.50;6.50;;;;;9.36;78.13;102463.38;5034899;28;45507;-76
2023/01/03 07:56:15;;;;;;;;;6.50;6.50;;;;;9.30;78.94;102481.31;5035410;28;45378;-77
2023/01/03 07:58:43;;;;;;;;;8.00;6.25;;;;;9.25;79.22;102483.19;5037919;28;45546;-77
2023/01/03 08:01:14;;;;;;;;;7.00;5.00;;;;;9.28;78.95;102484.03;5035823;28;46119;-77
2023/01/03 08:03:39;;;;;;;;;8.00;5.25;;;;;9.17;78.96;102469.03;5034518;28;45426;-75
2023/01/03 08:06:07;;;;;;;;;5.75;5.75;;;;;9.12;79.15;102471.75;5034805;28;45243;-77
2023/01/03 08:08:33;;;;;;;;;9.50;7.25;;;;;9.18;79.09;102485.06;5034860;28;45394;-77
2023/01/03 08:13:44;;;;;;;;;3.00;2.00;;;;;9.01;79.25;102481.72;5034458;28;45278;-78
2023/01/03 08:16:12;;;;;;;;;7.50;4.25;;;;;8.88;79.51;102480.94;5034419;28;45515;-78
2023/01/03 08:18:39;;;;;;;;;5.75;5.75;;;;;8.95;79.68;102482.63;5034559;28;45269;-76
2023/01/03 08:21:06;;;;;;;;;3.75;3.75;;;;;8.95;79.45;102490.66;5034254;28;46046;-77
2023/01/03 08:23:31;;;;;;;;;7.00;4.00;;;;;8.98;79.50;102481.72;5037324;28;45511;-76
2023/01/03 08:26:12;;;;;;;;;7.00;7.00;;;;;9.10;79.57;102503.84;5038025;28;45218;-75
2023/01/03 08:28:38;;;;;;;;;8.50;8.50;;;;;9.16;79.39;102508.28;5037981;28;45268;-76
2023/01/03 08:31:21;;;;;;;;;7.00;7.00;;;;;9.17;79.16;102495.78;5037262;28;45543;-76
2023/01/03 08:33:54;;;;;;;;;8.25;7.00;;;;;9.20;78.91;102501.06;5037991;28;45347;-77
2023/01/03 08:36:21;;;;;;;;;10.25;10.25;;;;;9.19;79.08;102510.88;5037741;28;45302;-77
2023/01/03 08:39:06;;;;;;;;;8.50;7.00;;;;;9.26;78.82;102514.41;5019880;28;45461;-77
2023/01/03 08:41:38;;;;;;;;;13.00;10.00;;;;;9.13;79.36;102502.06;5037536;28;45444;-77
2023/01/03 08:44:07;;;;;;;;;8.50;5.75;;;;;9.14;78.99;102504.72;5024196;28;45607;-76
2023/01/03 08:46:33;;;;;;;;;8.50;7.00;;;;;9.10;78.66;102489.63;5036369;28;45329;-77
2023/01/03 08:48:59;;;;;;;;;9.25;7.00;;;;;9.19;79.06;102510.88;5037620;28;45360;-77
2023/01/03 08:51:25;;;;;;;;;9.00;8.00;;;;;9.17;78.95;102514.50;5038410;28;46034;-76
2023/01/03 08:53:51;;;;;;;;;7.25;6.00;;;;;9.13;79.19;102515.44;5037789;28;45290;-78
2023/01/03 08:56:18;;;;;;;;;11.75;7.00;;;;;9.07;79.12;102506.59;5037922;28;45336;-76
2023/01/03 08:58:44;;;;;;;;;10.00;4.00;;;;;9.11;79.37;102502.06;5037488;28;45664;-76
2023/01/03 09:01:10;;;;;;;;;4.00;4.00;;;;;9.23;78.90;102504.63;5036917;28;46000;-76
2023/01/03 09:03:36;;;;;;;;;7.00;4.75;;;;;9.28;78.11;102516.13;5034439;28;45390;-76
2023/01/03 09:06:02;;;;;;;;;6.25;5.50;;;;;9.28;78.71;102512.56;5017868;28;45416;-78
2023/01/03 09:08:33;;;;;;;;;6.00;6.00;;;;;9.27;78.58;102511.69;5033830;28;45646;-76
2023/01/03 09:11:03;;;;;;;;;12.50;8.50;;;;;9.22;78.79;102504.63;5038251;28;46432;-76
2023/01/03 09:13:28;;;;;;;;;8.25;7.00;;;;;9.31;78.33;102515.22;5037798;28;45323;-75
2023/01/03 09:16:02;;;;;;;;;12.50;9.00;;;;;9.37;78.42;102524.06;5036363;28;45404;-77
2023/01/03 09:18:27;;;;;;;;;11.25;11.25;;;;;9.45;77.73;102523.94;5037599;28;45336;-76
2023/01/03 09:20:52;;;;;;;;;9.75;9.75;;;;;9.28;77.66;102489.38;5039349;28;46186;-77
2023/01/03 09:23:18;;;;;;;;;9.00;7.00;;;;;9.42;77.97;102519.53;5038447;28;45338;-77
2023/01/03 09:25:45;;;;;;;;;5.50;5.50;;;;;9.47;77.63;102533.75;5037881;28;45399;-76
2023/01/03 09:28:11;;;;;;;;;5.50;5.50;;;;;9.35;77.93;102528.56;5037013;28;45320;-77
2023/01/03 09:30:36;;;;;;;;;8.50;7.75;;;;;9.37;78.11;102537.44;5036979;28;45828;-76
2023/01/03 09:33:02;;;;;;;;;7.25;7.25;;;;;9.38;77.88;102525.81;5036613;28;45342;-76
2023/01/03 09:35:27;;;;;;;;;10.00;8.75;;;;;9.39;77.87;102526.72;5036966;28;45520;-77
2023/01/03 09:37:52;;;;;;;;;9.25;9.00;;;;;9.46;78.16;102528.41;5036925;28;45470;-76
2023/01/03 09:40:18;;;;;;;;;11.50;9.25;;;;;9.44;77.92;102525.75;5037080;28;46066;-77
2023/01/03 09:45:30;;;;;;;;;10.25;8.50;;;;;9.29;78.54;102528.63;5030899;28;45470;-77
2023/01/03 09:47:57;;;;;;;;;12.50;11.00;;;;;9.43;78.05;102529.34;5036509;28;45373;-75
2023/01/03 09:50:26;;;;;;;;;7.75;7.50;;;;;9.52;77.97;102527.47;5036530;28;45481;-77
2023/01/03 10:04:32;;;;;;;;;7.00;7.00;;;;;9.52;77.24;102540.84;5036775;28;45336;-77
2023/01/03 10:07:13;;;;;;;;;6.00;4.00;;;;;9.37;77.48;102537.44;5036588;28;45313;-76
2023/01/03 10:10:14;;;;;;;;;3.25;3.25;;;;;9.29;77.67;102531.28;5036701;28;45431;-76
2023/01/03 10:12:57;;;;;;;;;5.50;5.25;;;;;9.30;78.09;102527.72;5018469;28;48700;-77
2023/01/03 10:16:05;;;;;;;;;6.25;5.75;;;;;9.40;77.76;102548.13;5036473;28;45353;-77
2023/01/03 10:19:04;;;;;;;;;9.00;8.00;;;;;9.54;77.38;102553.28;5025663;28;45505;-76
2023/01/03 10:21:38;;;;;;;;;3.25;3.25;;;;;9.64;77.41;102557.63;5035931;28;45525;-75
2023/01/03 10:24:44;;;;;;;;;9.25;9.25;;;;;9.65;77.18;102548.69;5036273;28;46667;-76
2023/01/03 10:27:19;;;;;;;;;10.75;7.00;;;;;9.65;76.69;102542.44;4996874;28;45359;-75
2023/01/03 10:29:49;;;;;;;;;6.50;6.50;;;;;9.65;76.82;102553.16;5036466;28;45329;-77
2023/01/03 10:32:33;;;;;;;;;7.25;7.00;;;;;9.82;76.45;102556.50;5035894;28;45419;-76
2023/01/03 10:35:18;;;;;;;;;4.00;4.00;;;;;9.89;76.00;102566.22;5035979;28;46591;-76
2023/01/03 10:37:44;;;;;;;;;6.00;3.50;;;;;9.61;75.82;102543.41;5036345;28;45364;-76
2023/01/03 10:40:10;;;;;;;;;3.00;3.00;;;;;9.59;76.17;102550.56;5036323;28;45309;-76
2023/01/03 10:42:38;;;;;;;;;3.25;3.25;;;;;9.57;76.86;102563.09;5013672;28;46369;-75
2023/01/03 10:45:10;;;;;;;;;7.00;2.75;;;;;9.66;76.55;102553.13;5028371;28;46159;-76
2023/01/03 10:47:35;;;;;;;;;3.00;3.00;;;;;9.68;76.96;102558.47;5037742;28;45547;-75
2023/01/03 10:50:03;;;;;;;;;5.25;5.25;;;;;9.79;76.72;102556.53;5020356;28;45350;-76
2023/01/03 10:52:36;;;;;;;;;5.50;4.50;;;;;9.85;76.45;102546.63;5020225;28;46421;-74
2023/01/03 10:55:10;;;;;;;;;5.00;5.00;;;;;9.90;76.27;102534.94;5034793;28;48832;-75
2023/01/03 10:58:06;;;;;;;;;8.50;5.50;;;;;9.98;75.49;102533.94;5035808;28;45465;-76
2023/01/03 11:00:37;;;;;;;;;4.00;4.00;;;;;10.14;75.04;102547.97;5034993;28;45833;-75
2023/01/03 11:03:13;;;;;;;;;6.75;5.75;;;;;10.07;75.14;102540.94;5035409;28;45238;-75
2023/01/03 11:05:41;;;;;;;;;6.50;5.50;;;;;10.14;74.78;102545.28;5017446;28;47167;-75
2023/01/03 11:08:17;;;;;;;;;7.00;4.00;;;;;10.07;75.40;102543.63;5035495;28;45335;-76
2023/01/03 11:10:59;;;;;;;;;6.50;5.25;;;;;10.09;74.69;102539.13;5035651;28;45374;-77
2023/01/03 11:13:40;;;;;;;;;3.00;3.00;;;;;10.18;74.82;102549.75;5035332;28;45514;-75
2023/01/03 11:16:18;;;;;;;;;6.25;6.00;;;;;10.18;74.36;102539.91;5035308;28;46453;-76
2023/01/03 11:18:59;;;;;;;;;7.25;5.00;;;;;10.31;74.45;102550.44;5035519;28;45305;-75
2023/01/03 11:21:49;;;;;;;;;6.50;6.50;;;;;10.26;74.31;102546.94;5035135;28;45267;-77
2023/01/03 11:24:45;;;;;;;;;6.00;5.25;;;;;10.34;74.48;102540.56;5035087;28;45313;-76
2023/01/03 11:27:35;;;;;;;;;9.50;4.00;;;;;10.30;74.62;102532.56;5035451;28;46150;-75
2023/01/03 11:30:12;;;;;;;;;7.00;5.00;;;;;10.27;75.13;102536.22;5035471;28;45377;-76
2023/01/03 11:32:55;;;;;;;;;5.75;4.00;;;;;10.21;74.79;102512.16;5033462;28;45520;-76
2023/01/03 11:35:39;;;;;;;;;5.00;4.25;;;;;10.33;74.18;102536.09;5034932;28;45249;-75
2023/01/03 11:38:28;;;;;;;;;4.75;4.75;;;;;10.36;74.33;102537.84;5035129;28;46646;-76
2023/01/03 11:41:14;;;;;;;;;3.00;3.00;;;;;10.32;74.50;102534.31;5034724;28;45592;-76
2023/01/03 11:43:56;;;;;;;;;8.00;4.00;;;;;10.21;74.45;102522.88;5022079;28;45281;-76
2023/01/03 11:46:40;;;;;;;;;6.75;5.00;;;;;10.39;74.41;102527.06;5003700;28;45342;-77
2023/01/03 11:49:23;;;;;;;;;6.50;5.25;;;;;10.44;73.85;102520.72;5019626;28;45515;-77
2023/01/03 11:52:07;;;;;;;;;5.00;3.75;;;;;10.56;73.34;102524.97;5034803;28;45470;-76
2023/01/03 11:55:00;;;;;;;;;4.00;4.00;;;;;10.61;72.92;102518.63;5035270;28;45436;-76
2023/01/03 11:57:25;;;;;;;;;1.00;1.00;;;;;10.49;72.89;102515.28;5033920;28;45398;-76
2023/01/03 11:59:57;;;;;;;;;3.75;3.00;;;;;10.65;72.89;102518.56;5034867;28;45489;-76
2023/01/03 12:03:14;;;;;;;;;5.50;4.00;;;;;10.74;72.60;102511.25;5033221;28;45748;-79
2023/01/03 12:05:47;;;;;;;;;3.00;3.00;;;;;10.79;72.62;102501.31;5011448;28;45304;-76
2023/01/03 12:08:30;;;;;;;;;6.25;6.00;;;;;10.80;72.16;102486.97;5034718;28;45398;-75
2023/01/03 12:11:13;;;;;;;;;4.50;4.00;;;;;10.93;72.56;102496.56;5027311;28;45286;-76
2023/01/03 12:14:08;;;;;;;;;4.25;3.75;;;;;10.87;72.35;102491.34;5015965;28;45404;-75
2023/01/03 12:17:08;;;;;;;;;4.75;2.00;;;;;10.83;72.20;102486.03;5032915;28;45516;-75
2023/01/03 12:19:44;;;;;;;;;4.25;2.75;;;;;10.81;72.08;102477.13;5036020;28;45502;-76
2023/01/03 12:22:22;;;;;;;;;4.00;2.50;;;;;10.91;72.04;102474.25;5034330;28;45348;-76
2023/01/03 12:25:07;;;;;;;;;4.50;2.75;;;;;10.86;71.65;102478.81;5034289;28;45483;-75
2023/01/03 12:27:47;;;;;;;;;2.00;2.00;;;;;10.79;72.04;102484.34;5034619;28;45512;-76
2023/01/03 12:30:47;;;;;;;;;4.00;4.00;;;;;10.74;72.15;102481.72;5034394;28;45339;-75
2023/01/03 12:33:18;;;;;;;;;8.00;4.50;;;;;10.82;72.11;102493.19;5034413;28;45447;-75
2023/01/03 12:36:00;;;;;;;;;2.75;2.00;;;;;10.56;72.59;102461.50;5034040;28;45287;-77
2023/01/03 12:38:36;;;;;;;;;2.25;2.25;;;;;10.65;73.03;102476.53;5033186;28;45297;-77
2023/01/03 12:41:21;;;;;;;;;4.00;4.00;;;;;10.79;73.00;102485.22;5035173;28;45711;-76
2023/01/03 12:44:00;;;;;;;;;4.00;3.00;;;;;10.84;72.82;102482.44;5020459;28;45692;-76
2023/01/03 12:46:32;;;;;;;;;3.00;3.00;;;;;10.80;73.06;102468.19;5034047;28;45431;-76
2023/01/03 12:49:16;;;;;;;;;7.00;2.25;;;;;10.77;72.59;102473.63;5034054;28;45233;-77
2023/01/03 12:51:42;;;;;;;;;3.75;3.00;;;;;10.78;72.61;102458.44;5034328;28;45345;-75
2023/01/03 12:54:25;;;;;;;;;2.75;2.75;;;;;10.76;73.10;102461.13;5033938;28;46490;-76
2023/01/03 12:57:00;;;;;;;;;2.00;2.00;;;;;10.80;73.27;102453.91;5033913;28;45464;-76
2023/01/03 12:59:28;;;;;;;;;4.25;3.00;;;;;10.90;72.68;102456.38;5034424;28;45367;-76
2023/01/03 13:02:05;;;;;;;;;3.50;3.00;;;;;10.78;73.22;102447.69;5033654;28;45165;-76
2023/01/03 13:04:35;;;;;;;;;1.50;1.50;;;;;10.81;73.15;102443.13;5033979;28;46131;-74
2023/01/03 13:07:17;;;;;;;;;4.00;2.50;;;;;10.84;73.31;102445.75;5033653;28;45337;-75
2023/01/03 13:09:48;;;;;;;;;1.75;1.75;;;;;10.85;73.62;102430.56;5035593;28;45372;-75
2023/01/03 13:12:18;;;;;;;;;3.00;3.00;;;;;10.94;73.19;102430.38;5037893;28;45261;-76
2023/01/03 13:14:53;;;;;;;;;2.00;2.00;;;;;10.97;73.46;102424.94;5037365;28;45480;-76
2023/01/03 13:17:21;;;;;;;;;5.00;3.00;;;;;10.95;73.00;102424.09;5037261;28;45371;-75
2023/01/03 13:19:52;;;;;;;;;3.00;3.00;;;;;10.85;73.49;102409.97;5037111;28;45302;-78
2023/01/03 13:22:48;;;;;;;;;2.75;2.75;;;;;11.00;73.34;102427.56;5037176;28;45522;-77
2023/01/03 13:25:26;;;;;;;;;5.00;4.00;;;;;11.04;73.28;102431.94;5008450;28;46226;-76
2023/01/03 13:27:52;;;;;;;;;5.75;3.00;;;;;10.98;73.56;102416.84;5037363;28;45288;-75
2023/01/03 13:30:27;;;;;;;;;1.00;1.00;;;;;10.94;73.61;102417.84;5019560;28;45303;-76
2023/01/03 13:33:16;;;;;;;;;4.50;3.00;;;;;11.06;73.54;102432.78;5018872;28;45373;-77
2023/01/03 13:35:41;;;;;;;;;2.00;2.00;;;;;11.04;73.50;102434.63;5016485;28;47909;-76
2023/01/03 13:38:29;;;;;;;;;2.50;2.50;;;;;11.07;73.63;102420.25;5037364;28;45343;-74
2023/01/03 13:40:59;;;;;;;;;2.50;2.00;;;;;11.01;73.07;102415.91;5038565;28;45445;-76
2023/01/03 13:43:31;;;;;;;;;3.00;3.00;;;;;11.08;73.51;102424.69;5027125;28;45213;-76
2023/01/03 13:46:01;;;;;;;;;3.00;3.00;;;;;10.90;73.54;102393.78;5035933;28;46680;-76
2023/01/03 13:48:28;;;;;;;;;2.00;2.00;;;;;10.98;74.22;102407.91;5037471;28;45456;-76
2023/01/03 13:51:24;;;;;;;;;2.25;2.25;;;;;10.84;73.94;102391.22;5036913;28;45512;-76
2023/01/03 13:54:00;;;;;;;;;2.00;2.00;;;;;10.81;74.65;102413.63;4990464;28;46081;-76
2023/01/03 13:56:53;;;;;;;;;1.00;1.00;;;;;10.86;74.68;102417.13;5036992;28;45288;-76
2023/01/03 13:59:43;;;;;;;;;7.25;3.00;;;;;10.87;74.35;102415.31;5030126;28;45387;-76
2023/01/03 14:02:08;;;;;;;;;1.00;1.00;;;;;10.90;74.38;102400.03;5026832;28;45395;-75
2023/01/03 14:05:10;;;;;;;;;2.50;2.50;;;;;10.97;73.94;102400.81;5036975;28;45253;-76
2023/01/03 14:07:49;;;;;;;;;4.00;2.25;;;;;10.89;73.90;102384.84;5038171;28;45411;-76
2023/01/03 14:10:15;;;;;;;;;1.75;1.50;;;;;10.96;73.44;102394.56;5043007;28;45586;-75
2023/01/03 14:12:56;;;;;;;;;0.50;0.50;;;;;10.90;74.04;102394.66;5041325;28;45174;-75
2023/01/03 14:15:24;;;;;;;;;2.50;2.50;;;;;11.00;73.68;102393.56;5036232;28;45308;-77
2023/01/03 14:18:10;;;;;;;;;4.00;2.75;;;;;10.97;73.71;102387.38;5036055;28;45360;-76
2023/01/03 14:20:38;;;;;;;;;3.00;2.00;;;;;10.96;73.81;102389.19;5035480;28;45429;-76
2023/01/03 14:23:07;;;;;;;;;1.00;1.00;;;;;10.92;73.76;102391.94;5036225;28;45373;-77
2023/01/03 14:25:38;;;;;;;;;3.50;2.00;;;;;10.87;74.26;102391.16;5036321;28;45238;-76
2023/01/03 14:28:14;;;;;;;;;3.00;3.00;;;;;10.86;74.23;102401.00;5035892;28;45578;-76
2023/01/03 14:30:40;;;;;;;;;5.00;2.25;;;;;10.78;74.71;102392.25;5036114;28;45406;-76
2023/01/03 14:33:15;;;;;;;;;3.00;3.00;;;;;10.76;74.94;102403.91;5018057;28;45298;-76
2023/01/03 14:35:41;;;;;;;;;3.75;1.00;;;;;10.72;75.00;102392.34;5036150;28;45494;-76
2023/01/03 14:38:30;;;;;;;;;3.50;2.00;;;;;10.77;74.86;102403.88;5036015;28;45403;-77
2023/01/03 14:40:56;;;;;;;;;2.50;2.25;;;;;10.71;75.10;102377.19;5036967;28;45505;-75
2023/01/03 14:43:29;;;;;;;;;2.75;2.75;;;;;10.78;75.05;102380.63;5027167;28;45579;-76
2023/01/03 14:45:58;;;;;;;;;4.00;2.50;;;;;10.77;75.36;102376.16;5034641;28;45233;-76
2023/01/03 14:48:24;;;;;;;;;3.75;2.50;;;;;10.82;74.81;102383.19;5035780;28;48641;-76
2023/01/03 14:50:51;;;;;;;;;2.50;2.50;;;;;10.69;75.42;102354.88;5036442;28;45375;-77
2023/01/03 14:53:17;;;;;;;;;3.25;3.00;;;;;10.85;75.38;102382.25;5017962;28;45385;-74
2023/01/03 14:55:50;;;;;;;;;8.25;2.75;;;;;10.84;75.35;102376.00;5035521;28;45529;-76
2023/01/03 14:58:28;;;;;;;;;4.00;2.00;;;;;10.87;74.98;102378.63;5034358;28;47434;-75
2023/01/03 15:00:54;;;;;;;;;1.25;1.25;;;;;10.86;75.28;102374.19;5035624;28;45391;-76
2023/01/03 15:03:20;;;;;;;;;3.50;2.00;;;;;10.84;75.50;102365.28;5035673;28;45409;-76
2023/01/03 15:05:52;;;;;;;;;3.00;2.00;;;;;10.86;75.15;102368.81;5035922;28;45299;-76
2023/01/03 15:08:25;;;;;;;;;3.00;3.00;;;;;10.90;75.11;102372.31;5035640;28;45569;-76
2023/01/03 15:11:04;;;;;;;;;4.00;3.00;;;;;10.81;75.63;102375.19;5035998;28;45316;-75
2023/01/03 15:13:55;;;;;;;;;4.00;2.25;;;;;10.74;75.46;102369.06;5037579;28;45336;-76
2023/01/03 15:16:33;;;;;;;;;3.00;3.00;;;;;10.72;75.97;102353.94;5035768;28;45330;-77
2023/01/03 15:19:01;;;;;;;;;3.00;3.00;;;;;10.83;75.71;102357.25;5034425;28;47022;-76
2023/01/03 15:21:29;;;;;;;;;2.75;2.75;;;;;10.82;76.09;102356.38;5035592;28;45458;-74
2023/01/03 15:23:55;;;;;;;;;3.50;2.00;;;;;10.89;75.73;102360.69;5035976;28;45425;-76
2023/01/03 15:26:20;;;;;;;;;3.00;3.00;;;;;10.89;75.76;102355.31;5035367;28;45462;-75
2023/01/03 15:28:54;;;;;;;;;6.75;4.75;;;;;10.82;75.85;102348.31;5036070;28;46082;-75
2023/01/03 15:31:22;;;;;;;;;3.50;2.25;;;;;10.84;76.27;102349.19;5035241;28;45514;-75
2023/01/03 15:34:14;;;;;;;;;3.00;2.25;;;;;10.89;76.41;102358.00;5040148;28;45489;-76
2023/01/03 15:36:40;;;;;;;;;4.00;2.75;;;;;10.89;75.95;102346.38;5039601;28;45993;-75
2023/01/03 15:39:17;;;;;;;;;4.50;3.50;;;;;10.78;76.37;102330.53;5038608;28;45302;-75
2023/01/03 15:44:27;;;;;;;;;3.00;3.00;;;;;10.76;76.52;102351.16;5025594;28;45462;-75
2023/01/03 15:47:01;;;;;;;;;4.50;2.00;;;;;10.69;76.51;102330.72;5035516;28;45534;-76
2023/01/03 15:49:29;;;;;;;;;5.75;3.00;;;;;10.80;76.50;102331.38;5035325;28;45543;-76
2023/01/03 15:51:54;;;;;;;;;3.25;3.25;;;;;10.76;76.57;102320.75;5034699;28;45381;-75
2023/01/03 15:54:20;;;;;;;;;4.00;4.00;;;;;10.86;76.50;102327.69;5034960;28;45718;-75
2023/01/03 15:57:11;;;;;;;;;3.00;3.00;;;;;10.76;76.75;102327.00;5033314;28;45237;-74
2023/01/03 15:59:36;;;;;;;;;1.75;1.75;;;;;10.75;77.25;102332.41;5034655;28;45454;-75
2023/01/03 16:02:02;;;;;;;;;3.50;3.25;;;;;10.68;77.09;102309.31;5034489;28;45415;-74
2023/01/03 16:04:28;;;;;;;;;3.25;0.50;;;;;10.72;76.95;102321.75;5035295;28;45588;-76
2023/01/03 16:06:54;;;;;;;;;3.25;3.25;;;;;10.67;77.32;102315.56;5033760;28;47047;-77
2023/01/03 16:09:20;;;;;;;;;6.75;4.00;;;;;10.73;77.71;102318.13;5024259;28;46049;-77
2023/01/03 16:11:50;;;;;;;;;3.00;3.00;;;;;10.67;77.71;102327.19;5018837;28;45334;-79
2023/01/03 16:14:20;;;;;;;;;5.25;4.00;;;;;10.65;78.07;102334.38;5035203;28;45332;-76
2023/01/03 16:16:50;;;;;;;;;2.25;2.00;;;;;10.68;78.17;102339.69;5016468;28;45812;-78
2023/01/03 16:19:21;;;;;;;;;8.75;3.00;;;;;10.70;78.17;102336.97;5013452;28;46398;-74
2023/01/03 16:21:49;;;;;;;;;3.25;3.25;;;;;10.71;77.78;102336.97;5034460;28;45367;-78
2023/01/03 16:24:17;;;;;;;;;4.75;4.00;;;;;10.71;77.87;102318.19;5028738;28;45624;-78
2023/01/03 16:26:44;;;;;;;;;3.00;3.00;;;;;10.81;77.91;102326.88;5033461;28;45941;-75
2023/01/03 16:29:10;;;;;;;;;2.00;2.00;;;;;10.70;77.68;102302.13;5034491;28;45344;-73
2023/01/03 16:31:35;;;;;;;;;3.50;3.00;;;;;10.74;78.05;102310.03;5035478;28;45307;-77
2023/01/03 16:34:04;;;;;;;;;4.50;2.75;;;;;10.76;78.71;102316.28;5036348;28;45126;-78
2023/01/03 16:36:38;;;;;;;;;4.00;3.00;;;;;10.70;78.06;102312.84;5037425;28;45588;-80
2023/01/03 16:39:21;;;;;;;;;3.25;3.25;;;;;10.85;78.30;102323.25;5019839;28;47626;-77
2023/01/03 16:44:34;;;;;;;;;4.00;4.00;;;;;10.85;78.31;102325.91;5012952;28;45572;-78
2023/01/03 16:47:01;;;;;;;;;5.75;4.50;;;;;10.88;78.30;102324.06;5031394;28;45323;-78
2023/01/03 16:49:29;;;;;;;;;7.00;5.75;;;;;10.89;78.63;102323.13;5038834;28;46353;-80
2023/01/03 16:51:54;;;;;;;;;6.25;6.25;;;;;10.83;78.59;102312.53;5038696;28;45245;-79
2023/01/03 16:54:20;;;;;;;;;7.75;5.00;;;;;10.87;78.74;102316.94;5038989;28;45301;-79
2023/01/03 16:56:45;;;;;;;;;6.50;5.00;;;;;10.98;78.28;102328.28;5038661;28;45412;-80
2023/01/03 16:59:15;;;;;;;;;8.00;3.75;;;;;10.94;78.58;102329.28;5039204;28;45272;-81
2023/01/03 17:01:40;;;;;;;;;7.25;5.00;;;;;10.86;78.97;102307.09;5039208;28;45339;-79
2023/01/03 17:04:05;;;;;;;;;5.00;5.00;;;;;10.85;78.92;102312.50;5039389;28;45361;-78
2023/01/03 17:06:32;;;;;;;;;4.00;4.00;;;;;10.95;79.15;102343.59;5038993;28;45396;-79
2023/01/03 17:09:01;;;;;;;;;5.25;5.25;;;;;11.01;78.73;102343.44;5038868;28;45326;-78
2023/01/03 17:11:27;;;;;;;;;8.50;7.50;;;;;11.00;78.95;102339.00;5041605;28;45375;-79
2023/01/03 17:13:58;;;;;;;;;13.50;7.25;;;;;11.01;79.18;102343.44;5038455;28;45317;-79
2023/01/03 17:16:24;;;;;;;;;5.25;5.25;;;;;10.91;79.38;102336.50;5035542;28;45348;-79
2023/01/03 17:18:52;;;;;;;;;9.75;6.25;;;;;11.02;79.07;102345.22;5013666;28;45904;-78
2023/01/03 17:21:28;;;;;;;;;6.75;4.50;;;;;10.99;79.47;102348.84;5018400;28;46054;-78
2023/01/03 17:24:21;;;;;;;;;10.75;8.75;;;;;10.98;79.62;102354.22;5036128;28;45375;-79
2023/01/03 17:26:49;;;;;;;;;7.75;7.75;;;;;10.97;79.44;102349.81;5037624;28;45474;-82
2023/01/03 17:29:20;;;;;;;;;6.00;6.00;;;;;10.96;79.52;102354.28;5037470;28;45599;-79
2023/01/03 17:31:46;;;;;;;;;8.50;7.50;;;;;10.96;79.55;102356.97;5036924;28;45292;-77
2023/01/03 17:34:21;;;;;;;;;8.75;8.00;;;;;10.95;79.68;102354.31;5037090;28;45526;-79
2023/01/03 17:36:47;;;;;;;;;6.00;6.00;;;;;10.87;79.81;102343.75;5037249;28;45596;-80
2023/01/03 17:39:12;;;;;;;;;7.25;5.00;;;;;10.81;79.47;102330.44;5037175;28;45444;-78
2023/01/03 17:44:22;;;;;;;;;4.25;4.25;;;;;10.84;79.54;102329.50;5018025;28;45534;-80
2023/01/03 17:49:31;;;;;;;;;9.50;8.00;;;;;10.88;80.17;102344.66;5024243;28;45829;-80
2023/01/03 17:52:01;;;;;;;;;8.75;6.75;;;;;10.88;80.19;102355.38;5037201;28;45324;-77
2023/01/03 17:54:29;;;;;;;;;6.50;6.00;;;;;10.65;80.16;102312.03;5036229;28;45501;-80
2023/01/03 17:56:57;;;;;;;;;9.00;7.50;;;;;10.85;79.90;102340.22;5036645;28;45616;-80
2023/01/03 17:59:23;;;;;;;;;7.75;7.75;;;;;10.83;79.70;102325.06;5037095;28;45591;-81
2023/01/03 18:01:53;;;;;;;;;5.00;5.00;;;;;10.85;79.81;102339.34;5037502;28;45581;-82